Time;durP1;ratioP1;P1;durP2;ratioP2;P2;SDS_P1;SDS_P2;PMS_P1;PMS_P2;Temp;Humidity;BMP_temperature;BMP_pressure;BME280_temperature;BME280_humidity;BME280_pressure;Samples;Min_cycle;Max_cycle;Signal;HPM_P1;HPM_P2
2022/04/18 00:00:41;;;;;;;15.40;10.37;;;9.70;81.40;;;;;;5114985;27;20077;-74
2022/04/18 00:03:07;;;;;;;15.27;10.55;;;9.50;81.50;;;;;;5128252;27;20039;-74
2022/04/18 00:05:33;;;;;;;15.23;10.10;;;9.50;81.70;;;;;;5131961;27;20546;-74
2022/04/18 00:07:59;;;;;;;;;;;9.40;81.90;;;;;;5132498;27;20277;-74
2022/04/18 00:10:25;;;;;;;15.85;11.15;;;9.40;81.90;;;;;;5131505;27;20377;-74
2022/04/18 00:12:50;;;;;;;16.92;11.38;;;9.40;82.80;;;;;;5131482;27;20027;-74
2022/04/18 00:15:16;;;;;;;12.88;9.90;;;9.40;82.80;;;;;;5106799;27;20804;-74
2022/04/18 00:17:43;;;;;;;16.08;11.10;;;9.30;82.90;;;;;;5130344;27;20039;-74
2022/04/18 00:20:09;;;;;;;14.68;10.98;;;9.30;83.40;;;;;;5114629;27;20035;-75
2022/04/18 00:22:35;;;;;;;16.48;10.98;;;9.20;83.50;;;;;;5131636;27;20043;-75
2022/04/18 00:25:02;;;;;;;17.23;10.90;;;9.20;83.50;;;;;;5132018;27;20031;-75
2022/04/18 00:27:28;;;;;;;17.08;11.88;;;9.40;83.90;;;;;;5131384;27;20031;-74
2022/04/18 00:29:53;;;;;;;19.80;12.52;;;9.20;84.10;;;;;;5131594;27;20080;-74
2022/04/18 00:32:19;;;;;;;17.70;11.45;;;9.10;84.40;;;;;;5112734;27;20035;-75
2022/04/18 00:34:45;;;;;;;18.10;11.20;;;9.10;84.80;;;;;;5114030;27;20379;-74
2022/04/18 00:37:10;;;;;;;17.47;11.70;;;9.40;85.40;;;;;;5131324;27;20043;-74
2022/04/18 00:39:37;;;;;;;16.25;11.15;;;9.00;85.70;;;;;;5096873;27;20031;-75
2022/04/18 00:42:03;;;;;;;18.35;11.70;;;9.00;86.60;;;;;;5134191;27;20126;-75
2022/04/18 00:44:28;;;;;;;16.48;11.35;;;9.00;86.90;;;;;;5151861;27;20180;-75
2022/04/18 00:46:54;;;;;;;16.47;11.20;;;8.90;87.10;;;;;;5151751;27;20034;-74
2022/04/18 00:49:20;;;;;;;15.27;10.53;;;8.90;88.30;;;;;;5131589;27;20039;-74
2022/04/18 00:51:45;;;;;;;16.97;10.23;;;8.90;87.60;;;;;;5121544;27;20287;-75
2022/04/18 00:54:12;;;;;;;17.77;10.67;;;8.90;88.50;;;;;;5119570;27;20088;-75
2022/04/18 00:56:38;;;;;;;15.88;10.05;;;9.60;89.00;;;;;;5146410;27;20634;-75
2022/04/18 00:59:03;;;;;;;16.97;10.13;;;8.80;89.00;;;;;;5151443;27;20039;-74
2022/04/18 01:01:29;;;;;;;15.93;10.33;;;8.80;89.20;;;;;;5151046;27;20100;-75
2022/04/18 01:03:55;;;;;;;15.93;10.57;;;8.80;89.60;;;;;;5113688;27;20296;-75
2022/04/18 01:06:21;;;;;;;16.27;10.55;;;8.70;90.10;;;;;;5128898;27;20363;-73
2022/04/18 01:08:48;;;;;;;17.90;11.18;;;8.80;90.00;;;;;;5113746;27;20030;-74
2022/04/18 01:11:14;;;;;;;15.73;10.65;;;8.70;90.10;;;;;;5136007;27;20502;-74
2022/04/18 01:13:45;;;;;;;16.45;11.00;;;8.70;90.40;;;;;;5140865;27;20090;-75
2022/04/18 01:16:11;;;;;;;18.40;11.30;;;8.70;90.90;;;;;;5126592;27;20050;-75
2022/04/18 01:18:37;;;;;;;18.83;12.05;;;8.60;90.70;;;;;;5146194;27;20038;-75
2022/04/18 01:21:04;;;;;;;18.95;12.05;;;8.60;91.00;;;;;;5151054;27;20164;-75
2022/04/18 01:23:31;;;;;;;19.65;12.27;;;8.60;91.20;;;;;;5142315;27;20508;-75
2022/04/18 01:28:59;;;;;;;19.88;13.18;;;8.50;91.50;;;;;;5135128;27;20054;-74
2022/04/18 01:31:34;;;;;;;18.33;12.05;;;8.40;91.60;;;;;;5139464;27;20412;-75
2022/04/18 01:34:01;;;;;;;17.90;11.48;;;8.40;91.60;;;;;;5150191;27;20053;-74
2022/04/18 01:36:28;;;;;;;15.57;11.73;;;8.40;92.00;;;;;;5113444;27;20363;-75
2022/04/18 01:38:54;;;;;;;18.85;11.55;;;9.00;92.20;;;;;;5117581;27;20107;-74
2022/04/18 01:41:20;;;;;;;16.77;11.80;;;8.40;92.10;;;;;;5132968;27;20051;-75
2022/04/18 01:43:46;;;;;;;18.25;11.90;;;8.40;92.50;;;;;;5129996;27;20054;-75
2022/04/18 01:46:14;;;;;;;18.33;11.82;;;8.30;93.20;;;;;;5130365;28;20055;-74
2022/04/18 01:48:40;;;;;;;18.05;12.02;;;8.30;93.20;;;;;;5129526;27;20053;-74
2022/04/18 01:51:05;;;;;;;19.90;12.77;;;8.30;93.40;;;;;;5130175;28;20510;-74
2022/04/18 01:53:31;;;;;;;21.40;12.60;;;8.20;93.40;;;;;;5129776;28;20368;-75
2022/04/18 01:55:57;;;;;;;22.60;13.18;;;8.20;93.60;;;;;;5110820;28;20134;-75
2022/04/18 01:58:23;;;;;;;17.48;12.50;;;8.20;94.00;;;;;;5130507;27;20039;-74
2022/04/18 02:00:49;;;;;;;21.90;12.98;;;8.40;94.10;;;;;;5129550;28;20041;-74
2022/04/18 02:03:15;;;;;;;17.27;12.25;;;8.20;94.50;;;;;;5113041;28;20035;-74
2022/04/18 02:05:42;;;;;;;18.37;11.93;;;8.20;94.10;;;;;;5129733;28;20030;-75
2022/04/18 02:08:08;;;;;;;17.25;11.85;;;8.10;95.10;;;;;;5112755;28;20116;-74
2022/04/18 02:10:34;;;;;;;18.90;12.30;;;8.50;94.80;;;;;;5113036;28;20035;-74
2022/04/18 02:13:00;;;;;;;18.08;11.48;;;8.10;94.60;;;;;;5129934;28;20076;-74
2022/04/18 02:15:26;;;;;;;16.83;11.15;;;8.10;94.50;;;;;;5128703;28;20027;-75
2022/04/18 02:17:51;;;;;;;20.47;12.00;;;8.10;94.90;;;;;;5129494;27;20671;-74
2022/04/18 02:20:17;;;;;;;20.50;11.80;;;8.10;94.60;;;;;;5130022;27;20274;-74
2022/04/18 02:22:43;;;;;;;16.97;11.07;;;8.10;95.10;;;;;;5129430;28;20027;-74
2022/04/18 02:25:09;;;;;;;16.43;12.07;;;8.10;95.00;;;;;;5129700;27;20039;-75
2022/04/18 02:27:36;;;;;;;20.75;12.25;;;8.10;95.40;;;;;;5129791;28;20120;-74
2022/04/18 02:30:02;;;;;;;16.77;11.80;;;8.10;95.70;;;;;;5122848;27;20043;-74
2022/04/18 02:35:12;;;;;;;16.60;11.57;;;8.20;95.70;;;;;;5128464;28;20103;-74
2022/04/18 02:37:38;;;;;;;18.83;11.85;;;8.00;96.10;;;;;;5129493;28;20538;-74
2022/04/18 02:40:06;;;;;;;15.53;10.87;;;7.90;96.00;;;;;;5136067;27;20053;-74
2022/04/18 02:42:31;;;;;;;20.08;11.88;;;7.90;96.20;;;;;;5140602;27;20053;-74
2022/04/18 02:44:57;;;;;;;19.58;11.55;;;7.90;96.10;;;;;;5141081;27;20038;-75
2022/04/18 02:47:23;;;;;;;17.98;11.70;;;7.90;96.30;;;;;;5145803;27;20027;-74
2022/04/18 02:49:50;;;;;;;18.00;11.20;;;7.90;96.40;;;;;;5148772;27;20037;-74
2022/04/18 02:52:17;;;;;;;16.60;10.07;;;8.20;96.40;;;;;;5144275;27;20070;-75
2022/04/18 02:54:44;;;;;;;16.33;10.60;;;7.90;96.50;;;;;;5150894;27;20049;-75
2022/04/18 02:57:13;;;;;;;15.13;10.18;;;8.20;96.30;;;;;;5153822;27;20497;-74
2022/04/18 02:59:39;;;;;;;15.30;10.18;;;7.80;96.60;;;;;;5137738;27;20034;-75
2022/04/18 03:02:05;;;;;;;;;;;7.80;96.60;;;;;;5153324;27;20431;-75
2022/04/18 03:04:31;;;;;;;15.40;10.52;;;7.70;97.00;;;;;;5136292;27;19929;-73
2022/04/18 03:06:57;;;;;;;15.82;10.50;;;8.20;97.00;;;;;;5128225;27;20034;-74
2022/04/18 03:09:23;;;;;;;17.60;11.03;;;7.70;97.50;;;;;;5154160;27;20070;-74
2022/04/18 03:11:49;;;;;;;16.95;10.02;;;7.60;97.20;;;;;;5129007;27;20046;-74
2022/04/18 03:14:14;;;;;;;18.10;10.70;;;7.60;97.30;;;;;;5141709;27;20047;-74
2022/04/18 03:16:40;;;;;;;17.63;10.47;;;7.60;97.60;;;;;;5144860;27;20038;-75
2022/04/18 03:19:06;;;;;;;15.00;9.85;;;7.50;98.10;;;;;;5157190;27;20030;-75
2022/04/18 03:21:31;;;;;;;16.53;10.40;;;7.50;98.60;;;;;;5154572;27;20053;-75
2022/04/18 03:23:58;;;;;;;16.73;10.80;;;7.40;98.60;;;;;;5146703;27;20367;-74
2022/04/18 03:26:23;;;;;;;;;;;7.40;99.10;;;;;;5130505;27;20504;-74
2022/04/18 03:28:49;;;;;;;17.15;10.98;;;7.40;99.50;;;;;;5143849;27;19919;-74
2022/04/18 03:31:15;;;;;;;15.83;10.17;;;7.30;99.70;;;;;;5157031;27;20078;-75
2022/04/18 03:33:40;;;;;;;15.97;11.33;;;7.30;99.40;;;;;;5152091;27;20043;-74
2022/04/18 03:41:34;;;;;;;16.98;11.02;;;7.20;99.90;;;;;;5135444;27;20092;-74
2022/04/18 03:44:00;;;;;;;18.92;10.63;;;7.20;99.90;;;;;;5121184;27;20424;-75
2022/04/18 03:46:25;;;;;;;16.47;10.30;;;7.10;99.90;;;;;;5122135;27;20444;-74
2022/04/18 03:48:51;;;;;;;17.27;10.63;;;7.10;99.90;;;;;;5111732;27;20043;-74
2022/04/18 03:51:17;;;;;;;17.37;10.67;;;7.10;99.90;;;;;;5151244;27;20038;-74
2022/04/18 03:53:42;;;;;;;17.37;11.03;;;7.10;99.90;;;;;;5149148;27;20035;-75
2022/04/18 03:56:08;;;;;;;17.63;10.97;;;7.70;99.90;;;;;;5140848;27;20034;-74
2022/04/18 03:58:34;;;;;;;18.03;11.40;;;7.00;99.90;;;;;;5151369;27;20368;-75
2022/04/18 04:00:59;;;;;;;17.07;11.57;;;7.10;99.90;;;;;;5146724;27;20138;-74
2022/04/18 04:03:26;;;;;;;15.47;10.73;;;7.00;99.90;;;;;;5123860;27;20529;-74
2022/04/18 04:05:53;;;;;;;17.98;10.88;;;7.00;99.90;;;;;;5153265;27;20089;-74
2022/04/18 04:08:22;;;;;;;18.33;11.10;;;7.00;99.90;;;;;;5140560;27;20047;-74
2022/04/18 04:10:50;;;;;;;17.38;11.23;;;7.10;99.90;;;;;;5129466;27;20034;-74
2022/04/18 04:13:18;;;;;;;17.48;11.10;;;6.90;99.90;;;;;;5155931;27;20109;-75
2022/04/18 04:15:44;;;;;;;16.52;11.35;;;6.90;99.90;;;;;;5154599;27;20125;-75
2022/04/18 04:18:10;;;;;;;17.33;11.30;;;6.90;99.90;;;;;;5169887;27;20467;-74
2022/04/18 04:20:36;;;;;;;17.40;10.85;;;6.90;99.90;;;;;;5149560;27;20034;-74
2022/04/18 04:23:01;;;;;;;16.93;10.90;;;7.00;99.90;;;;;;5133794;27;20500;-74
2022/04/18 04:25:27;;;;;;;15.10;10.30;;;6.90;99.90;;;;;;5155464;27;20034;-74
2022/04/18 04:27:53;;;;;;;20.43;10.80;;;6.80;99.90;;;;;;5134029;27;20287;-75
2022/04/18 04:30:18;;;;;;;17.57;11.03;;;6.80;99.90;;;;;;5146551;27;20034;-75
2022/04/18 04:32:44;;;;;;;17.10;11.18;;;6.70;99.90;;;;;;5137646;27;20321;-74
2022/04/18 04:35:10;;;;;;;17.27;11.10;;;6.70;99.90;;;;;;5126817;27;20038;-74
2022/04/18 04:37:36;;;;;;;15.07;10.35;;;6.70;99.90;;;;;;5150818;27;20290;-74
2022/04/18 04:40:03;;;;;;;16.35;10.75;;;6.80;99.90;;;;;;5155105;27;20110;-75
2022/04/18 04:42:28;;;;;;;15.88;10.57;;;6.70;99.90;;;;;;5155675;27;20138;-75
2022/04/18 04:44:54;;;;;;;17.50;10.90;;;6.70;99.90;;;;;;5137169;27;20048;-75
2022/04/18 04:47:20;;;;;;;16.57;10.73;;;6.70;99.90;;;;;;5150764;27;20044;-75
2022/04/18 04:49:45;;;;;;;14.82;10.13;;;6.70;99.90;;;;;;5135292;27;20026;-74
2022/04/18 04:52:11;;;;;;;16.43;10.57;;;6.70;99.90;;;;;;5125395;27;20035;-74
2022/04/18 04:54:36;;;;;;;16.43;10.03;;;6.70;99.90;;;;;;5142172;27;20034;-74
2022/04/18 04:57:02;;;;;;;16.77;10.77;;;7.00;99.90;;;;;;5107842;27;20298;-74
2022/04/18 04:59:28;;;;;;;15.38;10.18;;;6.70;99.90;;;;;;5139721;27;20034;-75
2022/04/18 05:01:54;;;;;;;16.67;9.83;;;6.70;99.90;;;;;;5141204;27;20035;-75
2022/04/18 05:04:19;;;;;;;16.40;10.10;;;6.90;99.90;;;;;;5137320;27;20030;-74
2022/04/18 05:06:45;;;;;;;13.73;9.70;;;7.10;99.90;;;;;;5134480;27;20034;-75
2022/04/18 05:09:11;;;;;;;17.50;10.47;;;6.70;99.90;;;;;;5151963;27;20287;-75
2022/04/18 05:11:36;;;;;;;16.45;10.18;;;6.70;99.90;;;;;;5150769;27;20547;-75
2022/04/18 05:14:03;;;;;;;15.43;10.23;;;6.70;99.90;;;;;;5134946;27;20414;-74
2022/04/18 05:16:28;;;;;;;13.75;9.80;;;6.80;99.90;;;;;;5139051;27;20049;-74
2022/04/18 05:18:54;;;;;;;14.00;9.87;;;6.80;99.90;;;;;;5134725;27;20034;-75
2022/04/18 05:21:20;;;;;;;14.93;10.37;;;6.80;99.90;;;;;;5133803;27;20034;-74
2022/04/18 05:23:45;;;;;;;14.23;9.70;;;6.80;99.90;;;;;;5114607;27;20126;-75
2022/04/18 05:26:11;;;;;;;14.07;9.70;;;6.90;99.90;;;;;;5099793;27;20103;-75
2022/04/18 05:28:37;;;;;;;16.40;9.90;;;6.90;99.90;;;;;;5144612;27;20299;-75
2022/04/18 05:31:02;;;;;;;15.25;9.90;;;7.00;99.90;;;;;;5148371;27;20122;-74
2022/04/18 05:33:28;;;;;;;15.25;9.70;;;7.10;99.90;;;;;;5133698;27;20083;-75
2022/04/18 05:35:54;;;;;;;13.65;9.13;;;7.10;99.90;;;;;;5139853;27;20096;-75
2022/04/18 05:38:20;;;;;;;15.60;9.93;;;7.30;99.90;;;;;;5151919;27;20430;-75
2022/04/18 05:40:46;;;;;;;14.80;9.55;;;7.30;99.90;;;;;;5143934;27;20050;-74
2022/04/18 05:43:11;;;;;;;14.02;9.68;;;7.40;99.90;;;;;;5144807;27;20095;-75
2022/04/18 05:45:38;;;;;;;15.18;10.07;;;7.50;99.90;;;;;;5118281;27;20035;-75
2022/04/18 05:48:04;;;;;;;13.55;9.00;;;7.60;99.90;;;;;;5137515;27;20027;-75
2022/04/18 05:50:30;;;;;;;;;;;7.70;99.90;;;;;;5129965;27;20065;-75
2022/04/18 05:52:56;;;;;;;14.50;9.27;;;7.80;99.90;;;;;;5136933;27;19946;-75
2022/04/18 05:55:22;;;;;;;15.63;9.20;;;7.90;99.90;;;;;;5152769;27;20045;-75
2022/04/18 05:57:52;;;;;;;16.55;9.00;;;8.00;99.90;;;;;;5141159;27;20035;-75
2022/04/18 06:00:19;;;;;;;14.35;9.02;;;8.20;99.90;;;;;;5129528;27;20043;-75
2022/04/18 06:02:45;;;;;;;15.90;9.73;;;8.30;99.90;;;;;;5136005;27;20510;-74
2022/04/18 06:05:10;;;;;;;14.15;9.07;;;8.40;99.90;;;;;;5143842;27;20046;-74
2022/04/18 06:07:36;;;;;;;13.13;9.23;;;8.50;99.90;;;;;;5140695;27;20049;-75
2022/04/18 06:10:03;;;;;;;13.77;8.83;;;8.70;99.90;;;;;;5146278;27;20322;-75
2022/04/18 06:12:29;;;;;;;14.45;9.13;;;8.80;99.90;;;;;;5137274;27;20038;-75
2022/04/18 06:14:54;;;;;;;13.40;9.13;;;8.90;99.90;;;;;;5123025;27;20042;-76
2022/04/18 06:17:20;;;;;;;13.90;9.00;;;9.00;99.90;;;;;;5117520;27;20288;-75
2022/04/18 06:19:46;;;;;;;13.73;9.30;;;9.10;99.90;;;;;;5151430;27;20276;-74
2022/04/18 06:22:11;;;;;;;14.07;9.00;;;9.20;99.90;;;;;;5133537;27;20046;-74
2022/04/18 06:24:37;;;;;;;13.90;9.73;;;9.30;99.90;;;;;;5133038;27;20047;-74
2022/04/18 06:27:03;;;;;;;15.67;9.47;;;9.50;99.90;;;;;;5130735;27;20378;-74
2022/04/18 06:29:29;;;;;;;15.23;9.18;;;9.70;99.80;;;;;;5145837;27;20368;-75
2022/04/18 06:31:54;;;;;;;13.53;8.60;;;9.80;99.90;;;;;;5116061;27;20113;-75
2022/04/18 06:34:21;;;;;;;13.73;9.53;;;9.90;98.90;;;;;;5126398;27;20338;-76
2022/04/18 06:36:46;;;;;;;;;;;10.00;99.00;;;;;;5157178;27;20038;-76
2022/04/18 06:39:12;;;;;;;14.32;9.00;;;10.50;98.90;;;;;;5171522;27;19919;-75
2022/04/18 06:41:38;;;;;;;12.70;8.70;;;10.50;99.00;;;;;;5129965;27;20049;-76
2022/04/18 06:44:04;;;;;;;14.38;8.95;;;11.10;97.50;;;;;;5130739;27;20367;-76
2022/04/18 06:46:30;;;;;;;;;;;11.70;95.30;;;;;;5120010;27;20049;-74
2022/04/18 06:48:55;;;;;;;12.85;9.05;;;12.20;94.40;;;;;;5112382;28;19919;-75
2022/04/18 06:51:21;;;;;;;13.35;8.98;;;12.60;93.80;;;;;;5098023;28;20386;-75
2022/04/18 06:53:47;;;;;;;12.63;8.43;;;13.00;94.00;;;;;;5113183;27;20032;-74
2022/04/18 06:58:57;;;;;;;12.43;8.35;;;13.40;92.20;;;;;;5143859;27;20499;-74
2022/04/18 07:01:22;;;;;;;11.88;8.38;;;13.70;91.30;;;;;;5113787;27;20079;-74
2022/04/18 07:03:48;;;;;;;10.27;7.83;;;13.80;91.10;;;;;;5095476;28;20051;-74
2022/04/18 07:06:14;;;;;;;12.85;8.85;;;14.00;90.90;;;;;;5129419;27;20740;-74
2022/04/18 07:08:39;;;;;;;12.40;8.15;;;14.20;89.90;;;;;;5116495;27;20031;-75
2022/04/18 07:11:05;;;;;;;10.60;7.93;;;14.20;90.30;;;;;;5120101;27;20043;-75
2022/04/18 07:13:31;;;;;;;11.60;8.82;;;14.50;86.90;;;;;;5122191;27;20471;-75
2022/04/18 07:15:57;;;;;;;12.60;8.70;;;14.80;89.40;;;;;;5105900;27;20039;-75
2022/04/18 07:18:22;;;;;;;10.30;7.38;;;15.00;89.40;;;;;;5118752;27;20136;-75
2022/04/18 07:20:48;;;;;;;12.07;7.70;;;15.30;87.10;;;;;;5122208;27;20039;-74
2022/04/18 07:23:14;;;;;;;10.82;7.97;;;15.50;86.80;;;;;;5132774;27;20053;-75
2022/04/18 07:25:40;;;;;;;12.23;7.88;;;15.50;86.40;;;;;;5098591;27;20035;-75
2022/04/18 07:28:06;;;;;;;10.55;7.68;;;15.70;84.00;;;;;;5131962;27;20043;-75
2022/04/18 07:30:31;;;;;;;10.10;7.65;;;15.60;84.70;;;;;;5120549;27;20043;-75
2022/04/18 07:32:57;;;;;;;10.65;7.55;;;15.90;85.30;;;;;;5104898;28;20043;-74
2022/04/18 07:35:23;;;;;;;13.02;7.80;;;16.20;84.50;;;;;;5103299;28;20073;-74
2022/04/18 07:40:33;;;;;;;9.10;6.70;;;16.50;83.50;;;;;;5124947;27;20035;-75
2022/04/18 07:42:58;;;;;;;9.82;6.43;;;16.90;79.20;;;;;;5111686;27;20035;-76
2022/04/18 07:45:24;;;;;;;10.43;6.30;;;17.10;77.60;;;;;;5130414;27;20471;-74
2022/04/18 07:47:53;;;;;;;9.80;6.50;;;17.00;77.00;;;;;;5132063;27;20054;-75
2022/04/18 07:50:19;;;;;;;9.88;6.43;;;17.40;75.80;;;;;;5114864;27;20049;-74
2022/04/18 07:52:45;;;;;;;8.40;6.25;;;17.60;75.80;;;;;;5129556;27;20043;-75
2022/04/18 07:55:11;;;;;;;8.48;6.18;;;17.70;76.10;;;;;;5131047;27;20051;-74
2022/04/18 07:57:38;;;;;;;8.50;6.10;;;17.80;75.70;;;;;;5130941;27;20100;-76
2022/04/18 08:00:07;;;;;;;9.63;6.28;;;17.80;75.40;;;;;;5106018;27;20043;-75
2022/04/18 08:02:34;;;;;;;9.90;6.43;;;17.90;74.50;;;;;;5108460;27;20135;-73
2022/04/18 08:05:00;;;;;;;9.32;6.32;;;18.20;73.40;;;;;;5110589;27;20039;-75
2022/04/18 08:07:26;;;;;;;;;;;18.20;72.90;;;;;;5108278;27;20050;-74
2022/04/18 08:09:51;;;;;;;8.00;6.00;;;18.20;73.40;;;;;;5106377;27;19915;-74
2022/04/18 08:12:17;;;;;;;8.05;5.55;;;18.40;73.50;;;;;;5123388;27;20364;-72
2022/04/18 08:14:43;;;;;;;7.85;6.57;;;18.70;72.50;;;;;;5119638;27;20073;-72
2022/04/18 08:17:09;;;;;;;7.75;5.70;;;18.50;72.00;;;;;;5122974;27;20498;-72
2022/04/18 08:19:35;;;;;;;7.53;5.47;;;18.70;70.80;;;;;;5131023;27;20046;-73
2022/04/18 08:22:02;;;;;;;8.88;5.82;;;18.90;70.50;;;;;;5112151;27;20049;-73
2022/04/18 08:24:28;;;;;;;7.80;6.25;;;19.00;70.30;;;;;;5130767;27;20043;-75
2022/04/18 08:26:54;;;;;;;8.52;5.68;;;19.10;71.70;;;;;;5128394;27;20114;-73
2022/04/18 08:29:22;;;;;;;7.32;5.63;;;19.30;70.40;;;;;;5131048;27;20047;-73
2022/04/18 08:31:48;;;;;;;7.70;5.57;;;19.70;70.30;;;;;;5131166;27;20050;-75
2022/04/18 08:34:16;;;;;;;7.63;5.57;;;19.80;70.40;;;;;;5130603;27;20616;-73
2022/04/18 08:36:42;;;;;;;7.18;5.13;;;20.10;69.80;;;;;;5113856;27;20414;-74
2022/04/18 08:39:08;;;;;;;7.90;6.00;;;20.40;69.10;;;;;;5130426;27;20035;-74
2022/04/18 08:41:38;;;;;;;9.27;6.13;;;20.60;68.30;;;;;;5124399;27;20441;-74
2022/04/18 08:44:05;;;;;;;8.05;5.63;;;20.80;68.10;;;;;;5109529;28;20059;-77
2022/04/18 08:46:31;;;;;;;7.43;5.35;;;20.80;67.80;;;;;;5102651;28;20039;-74
2022/04/18 08:54:28;;;;;;;6.55;5.15;;;21.10;67.60;;;;;;5113039;27;20047;-73
2022/04/18 08:56:55;;;;;;;8.48;5.82;;;21.20;68.00;;;;;;5122107;27;20043;-73
2022/04/18 08:59:21;;;;;;;9.32;5.05;;;21.40;67.10;;;;;;5130585;27;20039;-75
2022/04/18 09:01:52;;;;;;;8.38;5.38;;;21.40;66.80;;;;;;5115166;27;20117;-74
2022/04/18 09:04:21;;;;;;;7.80;5.10;;;21.70;65.30;;;;;;5103275;27;20144;-74
2022/04/18 09:06:47;;;;;;;6.82;5.05;;;21.50;66.40;;;;;;5090861;28;20038;-73
2022/04/18 09:09:14;;;;;;;;;;;21.90;65.70;;;;;;5111362;27;20919;-74
2022/04/18 09:11:43;;;;;;;7.03;4.90;;;22.10;64.70;;;;;;5092942;27;19950;-75
2022/04/18 09:14:11;;;;;;;6.80;5.20;;;22.30;64.70;;;;;;5105831;28;20104;-74
2022/04/18 09:16:39;;;;;;;9.38;5.00;;;22.60;64.70;;;;;;5111734;27;20067;-74
2022/04/18 09:19:11;;;;;;;7.75;5.55;;;22.70;63.60;;;;;;5092449;28;20039;-73
2022/04/18 09:21:55;;;;;;;7.95;5.40;;;22.70;64.50;;;;;;5112137;27;20035;-74
2022/04/18 09:24:43;;;;;;;8.40;4.53;;;22.70;63.50;;;;;;5128029;27;20073;-74
2022/04/18 09:27:31;;;;;;;7.75;5.10;;;22.60;62.30;;;;;;5108979;27;20042;-75
2022/04/18 09:30:11;;;;;;;8.25;5.10;;;22.80;63.10;;;;;;5107891;28;20107;-76
2022/04/18 09:32:41;;;;;;;6.63;4.70;;;23.10;62.70;;;;;;5090821;28;20093;-74
2022/04/18 09:35:07;;;;;;;6.35;4.50;;;23.40;63.60;;;;;;5107053;28;20039;-75
2022/04/18 09:37:33;;;;;;;7.20;4.95;;;23.90;62.70;;;;;;5109013;28;20403;-73
2022/04/18 09:39:59;;;;;;;8.48;5.53;;;24.50;61.30;;;;;;5090953;28;20036;-74
2022/04/18 09:42:26;;;;;;;;;;;24.50;61.10;;;;;;5119330;27;20853;-74
2022/04/18 09:44:52;;;;;;;5.90;4.47;;;24.30;60.70;;;;;;5120692;27;20348;-74
2022/04/18 09:47:20;;;;;;;9.90;4.82;;;24.10;60.50;;;;;;5114549;27;20042;-75
2022/04/18 09:49:46;;;;;;;6.88;4.80;;;24.30;61.40;;;;;;5119891;28;20477;-74
2022/04/18 09:52:21;;;;;;;5.57;4.30;;;24.50;61.00;;;;;;5118949;28;20050;-75
2022/04/18 09:54:51;;;;;;;5.75;4.38;;;24.40;60.40;;;;;;5125277;27;20035;-75
2022/04/18 09:57:26;;;;;;;5.57;4.40;;;24.70;59.70;;;;;;5127096;27;20129;-73
2022/04/18 09:59:54;;;;;;;7.30;4.38;;;24.60;59.40;;;;;;5130036;28;20474;-75
2022/04/18 10:02:21;;;;;;;7.32;4.40;;;24.70;59.80;;;;;;5120280;28;20039;-75
2022/04/18 10:04:47;;;;;;;6.68;4.35;;;25.00;59.70;;;;;;5118430;28;20044;-74
2022/04/18 10:07:14;;;;;;;6.40;4.20;;;24.80;59.40;;;;;;5120968;28;20150;-75
2022/04/18 10:09:43;;;;;;;5.97;4.40;;;25.30;59.90;;;;;;5118491;27;20038;-74
2022/04/18 10:12:11;;;;;;;7.57;4.78;;;25.40;59.20;;;;;;5123455;27;20032;-72
2022/04/18 10:14:39;;;;;;;7.00;4.35;;;25.70;59.00;;;;;;5106370;27;20042;-76
2022/04/18 10:17:07;;;;;;;4.75;3.70;;;26.00;58.30;;;;;;5125824;27;20054;-72
2022/04/18 10:19:55;;;;;;;5.90;3.85;;;26.10;58.00;;;;;;5125281;27;20047;-75
2022/04/18 10:22:39;;;;;;;5.38;4.00;;;26.40;58.50;;;;;;5118025;27;20092;-76
2022/04/18 10:25:17;;;;;;;5.50;3.35;;;26.50;58.00;;;;;;5119322;27;20031;-73
2022/04/18 10:27:59;;;;;;;6.38;3.80;;;26.50;57.10;;;;;;5122347;27;20039;-73
2022/04/18 10:30:26;;;;;;;6.28;3.90;;;26.00;56.70;;;;;;5119112;27;20027;-73
2022/04/18 10:32:52;;;;;;;6.57;3.83;;;26.20;56.80;;;;;;5105168;27;20047;-75
2022/04/18 10:35:22;;;;;;;5.65;3.33;;;26.50;56.90;;;;;;5125377;27;20040;-75
2022/04/18 10:37:53;;;;;;;5.45;3.00;;;26.40;56.90;;;;;;5124634;27;20047;-77
2022/04/18 10:40:19;;;;;;;4.22;2.80;;;26.70;55.80;;;;;;5122789;27;20078;-75
2022/04/18 10:42:45;;;;;;;3.17;2.15;;;26.60;55.50;;;;;;5117264;27;20490;-77
2022/04/18 10:45:19;;;;;;;4.90;2.75;;;26.90;55.10;;;;;;5113842;27;20063;-75
2022/04/18 10:48:00;;;;;;;3.78;2.63;;;27.00;54.90;;;;;;5113392;27;20040;-73
2022/04/18 10:50:32;;;;;;;4.38;2.85;;;27.20;54.30;;;;;;5111219;28;20455;-74
2022/04/18 10:53:20;;;;;;;4.43;2.65;;;27.40;55.20;;;;;;5111494;28;20070;-72
2022/04/18 10:55:52;;;;;;;3.40;1.90;;;26.90;53.20;;;;;;5111163;28;20108;-73
2022/04/18 10:58:22;;;;;;;4.25;2.72;;;26.80;53.60;;;;;;5109720;28;20040;-73
2022/04/18 11:00:53;;;;;;;3.58;2.60;;;27.30;53.50;;;;;;5110206;28;20128;-73
2022/04/18 11:03:57;;;;;;;4.10;2.25;;;27.60;53.50;;;;;;5110346;28;20043;-74
2022/04/18 11:06:23;;;;;;;3.95;2.78;;;27.70;54.60;;;;;;5078387;28;20479;-72
2022/04/18 11:08:58;;;;;;;4.90;2.75;;;27.80;52.90;;;;;;5094809;27;20095;-74
2022/04/18 11:11:32;;;;;;;4.47;2.92;;;27.60;53.10;;;;;;5111616;27;20048;-73
2022/04/18 11:13:59;;;;;;;3.17;2.17;;;27.90;52.80;;;;;;5094856;27;20080;-72
2022/04/18 11:16:25;;;;;;;4.80;2.58;;;27.80;52.80;;;;;;5110321;28;20485;-72
2022/04/18 11:19:14;;;;;;;3.03;2.10;;;28.10;51.90;;;;;;5110628;28;20052;-75
2022/04/18 11:24:37;;;;;;;3.80;2.85;;;28.10;50.70;;;;;;5123841;27;20089;-75
2022/04/18 11:27:08;;;;;;;2.88;2.40;;;28.00;50.40;;;;;;5130941;27;20039;-74
2022/04/18 11:29:33;;;;;;;4.85;2.60;;;27.60;51.00;;;;;;5130788;27;20505;-74
2022/04/18 11:32:00;;;;;;;4.60;2.47;;;27.60;51.70;;;;;;5131083;27;20110;-74
2022/04/18 11:34:28;;;;;;;4.25;2.47;;;27.80;50.30;;;;;;5112765;27;20031;-74
2022/04/18 11:37:00;;;;;;;3.20;2.53;;;27.90;51.60;;;;;;5130798;27;20445;-74
2022/04/18 11:39:44;;;;;;;3.65;2.50;;;28.30;49.30;;;;;;5129480;27;20388;-75
2022/04/18 11:42:15;;;;;;;4.05;2.53;;;28.20;52.00;;;;;;5135628;27;20047;-76
2022/04/18 11:44:42;;;;;;;3.92;3.00;;;28.50;51.60;;;;;;5133044;27;20099;-73
2022/04/18 11:47:09;;;;;;;4.30;2.70;;;28.90;50.50;;;;;;5132446;27;20069;-75
2022/04/18 11:49:36;;;;;;;3.22;2.67;;;28.60;51.20;;;;;;5133269;27;20442;-73
2022/04/18 11:52:02;;;;;;;2.83;2.33;;;28.20;50.30;;;;;;5116190;27;20102;-73
2022/04/18 11:54:28;;;;;;;3.33;2.75;;;28.10;50.70;;;;;;5101144;27;20138;-74
2022/04/18 11:57:03;;;;;;;3.50;2.17;;;28.10;51.40;;;;;;5132314;27;21247;-74
2022/04/18 11:59:29;;;;;;;3.47;2.15;;;28.80;51.40;;;;;;5135508;27;20091;-74
2022/04/18 12:07:28;;;;;;;4.40;2.75;;;28.20;50.20;;;;;;5133677;27;20038;-73
2022/04/18 12:09:54;;;;;;;3.47;2.60;;;28.50;50.30;;;;;;5115671;27;20376;-73
2022/04/18 12:12:31;;;;;;;3.67;2.25;;;28.50;50.00;;;;;;5132724;27;20125;-73
2022/04/18 12:15:05;;;;;;;2.97;2.50;;;29.10;51.50;;;;;;5113919;27;20401;-72
2022/04/18 12:17:33;;;;;;;3.83;2.90;;;29.40;51.50;;;;;;5115556;27;20041;-72
2022/04/18 12:20:21;;;;;;;4.47;2.95;;;29.40;50.50;;;;;;5132423;27;20038;-72
2022/04/18 12:22:53;;;;;;;4.60;3.38;;;29.40;50.30;;;;;;5132058;27;20068;-73
2022/04/18 12:25:24;;;;;;;4.35;3.13;;;29.30;50.10;;;;;;5131956;27;20070;-72
2022/04/18 12:27:50;;;;;;;4.72;3.05;;;29.20;49.90;;;;;;5131870;27;20042;-74
2022/04/18 12:30:17;;;;;;;3.85;3.10;;;28.80;49.10;;;;;;5129937;27;20035;-73
2022/04/18 12:32:47;;;;;;;4.63;2.95;;;28.80;50.40;;;;;;5115797;27;20034;-73
2022/04/18 12:35:57;;;;;;;6.15;3.15;;;28.90;51.70;;;;;;5137509;27;20411;-72
2022/04/18 12:38:38;;;;;;;5.05;3.33;;;29.20;50.90;;;;;;5121935;27;20078;-73
2022/04/18 12:41:04;;;;;;;3.97;3.00;;;28.90;50.80;;;;;;5154155;27;20081;-73
2022/04/18 12:43:33;;;;;;;3.47;2.70;;;29.30;49.90;;;;;;5121470;27;20078;-73
2022/04/18 12:46:01;;;;;;;3.00;2.50;;;28.40;48.60;;;;;;5154290;27;20034;-72
2022/04/18 12:48:28;;;;;;;4.90;3.53;;;28.00;49.70;;;;;;5143780;27;20050;-75
2022/04/18 12:50:56;;;;;;;3.40;2.80;;;28.60;50.00;;;;;;5115544;27;20091;-75
2022/04/18 12:53:48;;;;;;;3.50;2.63;;;28.70;49.30;;;;;;5132175;27;20489;-72
2022/04/18 12:56:20;;;;;;;3.17;2.75;;;28.30;48.00;;;;;;5165443;27;20054;-73
2022/04/18 12:58:47;;;;;;;4.55;2.70;;;28.20;49.10;;;;;;5151528;27;20030;-73
2022/04/18 13:01:32;;;;;;;5.95;2.78;;;28.80;49.30;;;;;;5132354;27;20043;-72
2022/04/18 13:03:58;;;;;;;3.30;2.67;;;29.00;50.40;;;;;;5120884;27;20078;-80
2022/04/18 13:06:25;;;;;;;4.32;3.03;;;29.20;49.00;;;;;;5124192;27;20034;-82
2022/04/18 13:09:05;;;;;;;4.20;2.40;;;29.00;49.80;;;;;;5148614;27;20562;-82
2022/04/18 13:11:41;;;;;;;5.03;3.08;;;29.30;48.90;;;;;;5145629;27;20038;-80
2022/04/18 13:14:08;;;;;;;4.68;3.22;;;29.40;49.40;;;;;;5133393;27;20068;-81
2022/04/18 13:16:34;;;;;;;5.82;3.13;;;29.10;49.60;;;;;;5150841;27;20417;-78
2022/04/18 13:19:09;;;;;;;3.20;2.90;;;29.00;49.20;;;;;;5123248;27;20042;-79